ΕΜΥ, Εθνική Μετεωρολογική Υπηρεσία - Δελτία Καιρού, Προγνώσεις

ΑΕΡΟΝΑΥΤΙΛΙΑ

GREEK AIRPORTS CODES

LGEL 100750Z 34014G24KT CAVOK 31/11 Q1011=

EUROPEAN AIRPORTS CODES

LFPO 100730Z 04007KT 010V070 CAVOK 23/12 Q1023 NOSIG=